Time;durP1;ratioP1;P1;durP2;ratioP2;P2;SDS_P1;SDS_P2;PMS_P1;PMS_P2;Temp;Humidity;BMP_temperature;BMP_pressure;BME280_temperature;BME280_humidity;BME280_pressure;Samples;Min_cycle;Max_cycle;Signal;HPM_P1;HPM_P2
2023/08/06 00:02:14;;;;;;;13.88;7.47;;;14.10;99.90;;;;;;5048279;28;20052;-84
2023/08/06 00:04:39;;;;;;;12.65;7.82;;;14.10;99.90;;;;;;5064915;28;20082;-84
2023/08/06 00:07:05;;;;;;;11.75;7.53;;;14.10;99.90;;;;;;5069203;28;20048;-84
2023/08/06 00:09:31;;;;;;;13.27;7.32;;;14.10;99.90;;;;;;5082777;28;20127;-84
2023/08/06 00:11:57;;;;;;;17.70;8.90;;;14.20;99.90;;;;;;5067519;28;20045;-84
2023/08/06 00:14:22;;;;;;;16.95;8.82;;;14.10;99.90;;;;;;5052959;28;20048;-85
2023/08/06 00:16:48;;;;;;;11.25;7.95;;;14.10;99.90;;;;;;5067676;28;20506;-84
2023/08/06 00:19:14;;;;;;;11.90;7.25;;;14.10;99.90;;;;;;5051954;28;20044;-85
2023/08/06 00:21:39;;;;;;;10.80;7.75;;;14.10;99.90;;;;;;5068994;28;20059;-85
2023/08/06 00:24:05;;;;;;;15.23;7.40;;;14.10;99.90;;;;;;5051571;28;20163;-84
2023/08/06 00:26:31;;;;;;;12.80;9.38;;;14.00;99.90;;;;;;5066711;28;20036;-84
2023/08/06 00:28:56;;;;;;;11.57;7.97;;;14.00;99.90;;;;;;5069073;28;20048;-84
2023/08/06 00:31:22;;;;;;;13.68;8.43;;;14.00;99.90;;;;;;5068244;28;20099;-85
2023/08/06 00:33:48;;;;;;;15.80;7.60;;;14.00;99.90;;;;;;5067982;28;20106;-84
2023/08/06 00:36:14;;;;;;;16.92;7.45;;;14.00;99.90;;;;;;5069968;28;20044;-84
2023/08/06 00:38:39;;;;;;;14.90;9.50;;;14.00;99.90;;;;;;5051998;28;20058;-84
2023/08/06 00:41:05;;;;;;;10.18;7.88;;;14.00;99.90;;;;;;5067809;28;20117;-84
2023/08/06 00:43:31;;;;;;;20.20;8.50;;;14.00;99.90;;;;;;5051945;28;20057;-84
2023/08/06 00:45:56;;;;;;;13.02;7.50;;;14.00;99.90;;;;;;5067164;28;20048;-84
2023/08/06 00:48:22;;;;;;;12.75;7.97;;;14.00;99.90;;;;;;5051669;28;20171;-84
2023/08/06 00:50:48;;;;;;;12.50;8.45;;;14.00;99.90;;;;;;5067878;28;20056;-84
2023/08/06 00:53:14;;;;;;;12.43;9.10;;;14.00;99.90;;;;;;5067628;28;20463;-84
2023/08/06 00:55:41;;;;;;;14.77;8.13;;;14.00;99.90;;;;;;5067834;28;20097;-84
2023/08/06 00:58:07;;;;;;;15.50;7.97;;;13.90;99.90;;;;;;5067805;28;20512;-84
2023/08/06 01:00:33;;;;;;;14.45;7.88;;;13.90;99.90;;;;;;5067120;28;20182;-84
2023/08/06 01:02:59;;;;;;;12.55;8.55;;;13.90;99.90;;;;;;5050054;28;20048;-84
2023/08/06 01:05:25;;;;;;;16.60;8.70;;;13.90;99.90;;;;;;5068674;28;20201;-84
2023/08/06 01:08:19;;;;;;;13.50;8.05;;;13.90;99.90;;;;;;5049561;28;20575;-84
2023/08/06 01:11:22;;;;;;;13.38;8.10;;;13.90;99.90;;;;;;5068270;28;20044;-84
2023/08/06 01:13:51;;;;;;;13.13;8.73;;;13.90;99.90;;;;;;5075897;28;20080;-84
2023/08/06 01:16:19;;;;;;;13.15;8.38;;;13.90;99.90;;;;;;5066197;28;20032;-84
2023/08/06 01:18:46;;;;;;;11.63;7.88;;;13.90;99.90;;;;;;5051581;28;20520;-84
2023/08/06 01:21:15;;;;;;;16.35;8.30;;;13.90;99.90;;;;;;5051550;28;20032;-84
2023/08/06 01:23:42;;;;;;;14.60;8.38;;;14.00;99.90;;;;;;5069080;28;20040;-84
2023/08/06 01:26:12;;;;;;;12.68;7.55;;;14.00;99.90;;;;;;5067544;28;20094;-85
2023/08/06 01:28:56;;;;;;;16.02;9.13;;;13.90;99.90;;;;;;5067544;28;20152;-84
2023/08/06 01:31:33;;;;;;;10.40;8.45;;;13.90;99.90;;;;;;5039972;28;20044;-84
2023/08/06 01:34:01;;;;;;;10.52;8.45;;;14.00;99.90;;;;;;5066941;28;20036;-84
2023/08/06 01:36:28;;;;;;;13.63;9.35;;;13.90;99.90;;;;;;5067075;28;20052;-84
2023/08/06 01:38:54;;;;;;;14.85;9.05;;;14.00;99.90;;;;;;5066689;28;20550;-84
2023/08/06 01:41:20;;;;;;;11.43;8.70;;;13.90;99.90;;;;;;5067829;28;20048;-84
2023/08/06 01:43:46;;;;;;;16.73;10.02;;;14.00;99.90;;;;;;5066229;28;20044;-83
2023/08/06 01:46:11;;;;;;;16.50;10.63;;;13.90;99.90;;;;;;5051010;28;20062;-84
2023/08/06 01:48:37;;;;;;;14.88;11.13;;;13.90;99.90;;;;;;5067824;28;20076;-84
2023/08/06 01:51:06;;;;;;;16.23;9.85;;;13.90;99.90;;;;;;5066615;28;20127;-84
2023/08/06 01:53:33;;;;;;;18.15;9.80;;;13.90;99.90;;;;;;5052007;28;20036;-84
2023/08/06 01:55:59;;;;;;;16.58;10.48;;;13.90;99.90;;;;;;5067121;28;20128;-84
2023/08/06 01:58:25;;;;;;;15.88;11.13;;;13.90;99.90;;;;;;5067899;28;20131;-85
2023/08/06 02:00:51;;;;;;;16.95;10.38;;;13.90;99.90;;;;;;5049863;28;20548;-84
2023/08/06 02:03:16;;;;;;;18.58;12.43;;;14.00;99.90;;;;;;5069995;28;20052;-83
2023/08/06 02:05:42;;;;;;;16.52;11.13;;;13.90;99.90;;;;;;5059385;28;20105;-84
2023/08/06 02:08:08;;;;;;;17.95;11.27;;;14.00;99.90;;;;;;5066392;28;20127;-85
2023/08/06 02:10:34;;;;;;;14.75;10.95;;;13.90;99.90;;;;;;5078700;28;20112;-84
2023/08/06 02:12:59;;;;;;;20.38;12.75;;;13.90;99.90;;;;;;5051342;28;20033;-84
2023/08/06 02:15:25;;;;;;;20.10;12.93;;;14.00;99.90;;;;;;5087375;28;20127;-84
2023/08/06 02:17:51;;;;;;;16.23;11.80;;;14.00;99.90;;;;;;5050237;28;20037;-84
2023/08/06 02:20:17;;;;;;;14.18;11.63;;;14.00;99.90;;;;;;5066883;28;20492;-84
2023/08/06 02:22:42;;;;;;;14.75;11.43;;;14.00;99.90;;;;;;5067609;28;20122;-84
2023/08/06 02:25:08;;;;;;;18.02;13.68;;;14.00;99.90;;;;;;5057556;28;20045;-84
2023/08/06 02:27:34;;;;;;;16.15;10.60;;;14.10;99.90;;;;;;5067761;28;20072;-84
2023/08/06 02:29:59;;;;;;;15.98;11.60;;;14.10;99.90;;;;;;5066249;28;20044;-85
2023/08/06 02:32:25;;;;;;;19.65;11.80;;;14.10;99.90;;;;;;5064716;28;20112;-85
2023/08/06 02:34:51;;;;;;;17.17;12.85;;;14.10;99.90;;;;;;5060970;28;20048;-85
2023/08/06 02:37:17;;;;;;;18.55;14.75;;;14.10;99.90;;;;;;5050894;28;20503;-84
2023/08/06 02:39:43;;;;;;;25.13;14.07;;;14.10;99.90;;;;;;5068626;28;20131;-85
2023/08/06 02:42:09;;;;;;;17.95;11.70;;;14.10;99.90;;;;;;5084732;28;20036;-85
2023/08/06 02:44:35;;;;;;;18.92;13.98;;;14.10;99.90;;;;;;5057493;28;20044;-84
2023/08/06 02:47:01;;;;;;;23.55;14.25;;;14.20;99.90;;;;;;5064185;28;20400;-85
2023/08/06 02:49:27;;;;;;;17.20;12.50;;;14.20;99.90;;;;;;5077717;28;20048;-85
2023/08/06 02:51:53;;;;;;;17.85;13.68;;;14.20;99.90;;;;;;5067749;28;20429;-84
2023/08/06 02:54:19;;;;;;;14.77;11.88;;;14.20;99.90;;;;;;5077315;28;20043;-84
2023/08/06 02:56:46;;;;;;;14.13;11.88;;;14.20;99.90;;;;;;5049996;28;20052;-84
2023/08/06 02:59:12;;;;;;;19.55;12.85;;;14.20;99.90;;;;;;5066190;28;20539;-84
2023/08/06 03:01:38;;;;;;;21.25;13.65;;;14.20;99.90;;;;;;5077649;28;20040;-85
2023/08/06 03:04:04;;;;;;;20.33;12.27;;;14.20;99.90;;;;;;5066023;28;20044;-84
2023/08/06 03:06:30;;;;;;;13.68;12.20;;;14.20;99.90;;;;;;5066749;28;20040;-84
2023/08/06 03:08:56;;;;;;;20.95;13.88;;;14.20;99.90;;;;;;5056460;28;20484;-84
2023/08/06 03:11:21;;;;;;;16.30;12.85;;;14.20;99.90;;;;;;5081457;28;20120;-84
2023/08/06 03:13:47;;;;;;;19.92;14.35;;;14.20;99.90;;;;;;5064676;28;20044;-84
2023/08/06 03:16:13;;;;;;;18.08;13.40;;;14.20;99.90;;;;;;5048364;28;20438;-85
2023/08/06 03:18:39;;;;;;;17.45;12.80;;;14.20;99.90;;;;;;5059872;28;20535;-84
2023/08/06 03:21:05;;;;;;;19.13;14.45;;;14.20;99.90;;;;;;5065561;28;20396;-85
2023/08/06 03:23:31;;;;;;;19.75;13.10;;;14.10;99.90;;;;;;5066103;28;20071;-85
2023/08/06 03:26:02;;;;;;;17.85;12.35;;;14.10;99.90;;;;;;5059334;28;20036;-84
2023/08/06 03:28:28;;;;;;;20.20;14.65;;;14.10;99.90;;;;;;5055920;28;20052;-84
2023/08/06 03:31:03;;;;;;;16.55;13.90;;;14.10;99.90;;;;;;5064053;28;20036;-84
2023/08/06 03:33:30;;;;;;;17.02;13.18;;;14.00;99.90;;;;;;5066046;28;20512;-85
2023/08/06 03:35:56;;;;;;;16.70;11.55;;;14.00;99.90;;;;;;5063965;28;20039;-84
2023/08/06 03:38:22;;;;;;;18.73;12.07;;;14.00;99.90;;;;;;5071893;28;20048;-84
2023/08/06 03:40:48;;;;;;;20.73;12.93;;;14.00;99.90;;;;;;5064273;28;20364;-85
2023/08/06 03:43:14;;;;;;;22.52;15.30;;;14.00;99.90;;;;;;5072503;28;20072;-85
2023/08/06 03:45:40;;;;;;;17.27;12.57;;;14.00;99.90;;;;;;5082073;28;20120;-85
2023/08/06 03:48:06;;;;;;;21.38;11.95;;;14.00;99.90;;;;;;5053062;28;20686;-85
2023/08/06 03:50:32;;;;;;;17.98;11.95;;;14.00;99.90;;;;;;5066013;28;20131;-85
2023/08/06 03:52:58;;;;;;;13.25;10.43;;;14.00;99.90;;;;;;5066173;28;20137;-84
2023/08/06 03:55:23;;;;;;;16.08;11.63;;;14.00;99.90;;;;;;5049636;28;20174;-85
2023/08/06 03:57:49;;;;;;;19.40;11.55;;;14.00;99.90;;;;;;5064322;28;20464;-84
2023/08/06 04:00:15;;;;;;;16.15;12.55;;;14.00;99.90;;;;;;5049053;28;20098;-84
2023/08/06 04:02:41;;;;;;;13.98;10.45;;;14.00;99.90;;;;;;5065325;28;20547;-84
2023/08/06 04:05:07;;;;;;;19.83;11.77;;;14.00;99.90;;;;;;5047381;28;20043;-84
2023/08/06 04:07:32;;;;;;;17.88;12.00;;;14.00;99.90;;;;;;5065708;28;20495;-84
2023/08/06 04:10:00;;;;;;;17.27;11.20;;;14.00;99.90;;;;;;5063974;28;20052;-84
2023/08/06 04:12:26;;;;;;;19.52;10.82;;;14.00;99.90;;;;;;5049094;28;20048;-84
2023/08/06 04:14:53;;;;;;;16.95;10.48;;;14.00;99.90;;;;;;5065302;28;20048;-84
2023/08/06 04:17:23;;;;;;;15.48;10.38;;;14.00;99.90;;;;;;5048616;28;20040;-84
2023/08/06 04:19:53;;;;;;;13.32;10.68;;;14.00;99.90;;;;;;5037105;28;20070;-84
2023/08/06 04:22:19;;;;;;;13.52;10.75;;;14.00;99.90;;;;;;5065758;28;20052;-84
2023/08/06 04:24:45;;;;;;;13.18;9.68;;;14.00;99.90;;;;;;5065524;28;20036;-84
2023/08/06 04:27:12;;;;;;;14.18;9.43;;;14.00;99.90;;;;;;5062612;28;20040;-84
2023/08/06 04:29:38;;;;;;;14.27;9.43;;;14.00;99.90;;;;;;5049676;28;20098;-84
2023/08/06 04:32:07;;;;;;;14.23;9.73;;;14.00;99.90;;;;;;5062985;28;20044;-84
2023/08/06 04:34:33;;;;;;;16.42;9.32;;;14.00;99.90;;;;;;5050758;28;20468;-84
2023/08/06 04:36:59;;;;;;;16.83;10.75;;;14.00;99.90;;;;;;5064201;28;20533;-84
2023/08/06 04:39:25;;;;;;;14.48;10.43;;;14.00;99.90;;;;;;5066027;28;20071;-85
2023/08/06 04:41:51;;;;;;;20.27;10.93;;;14.00;99.90;;;;;;5064030;28;20492;-84
2023/08/06 04:44:17;;;;;;;14.82;11.60;;;14.00;99.90;;;;;;5048016;28;20040;-84
2023/08/06 04:46:42;;;;;;;14.52;10.23;;;14.00;99.90;;;;;;5064326;28;20554;-85
2023/08/06 04:49:08;;;;;;;12.60;10.02;;;14.00;99.90;;;;;;5049783;28;20158;-85
2023/08/06 04:51:34;;;;;;;13.95;9.90;;;14.00;99.90;;;;;;5070322;28;20032;-84
2023/08/06 04:54:00;;;;;;;15.48;9.70;;;14.00;99.90;;;;;;5052227;28;20139;-84
2023/08/06 04:56:25;;;;;;;13.85;9.45;;;14.00;99.90;;;;;;5058610;28;20040;-84
2023/08/06 04:58:51;;;;;;;14.02;9.55;;;14.00;99.90;;;;;;5067757;28;20120;-84
2023/08/06 05:01:17;;;;;;;11.85;9.63;;;14.00;99.90;;;;;;5050485;28;20037;-84
2023/08/06 05:03:42;;;;;;;12.15;9.70;;;14.00;99.90;;;;;;5076316;28;20496;-84
2023/08/06 05:06:08;;;;;;;13.88;10.20;;;13.90;99.90;;;;;;5083874;28;20172;-84
2023/08/06 05:08:34;;;;;;;13.82;9.25;;;13.90;99.90;;;;;;5057481;28;20539;-85
2023/08/06 05:11:00;;;;;;;14.82;9.98;;;13.90;99.90;;;;;;5067568;28;20068;-85
2023/08/06 05:13:25;;;;;;;14.90;9.90;;;13.90;99.90;;;;;;5059484;28;20040;-85
2023/08/06 05:15:54;;;;;;;12.18;9.38;;;13.90;99.90;;;;;;5067745;28;20479;-84
2023/08/06 05:18:19;;;;;;;17.85;11.52;;;13.90;99.90;;;;;;5068383;28;20029;-84
2023/08/06 05:20:45;;;;;;;16.88;11.13;;;13.90;99.90;;;;;;5067484;28;20459;-84
2023/08/06 05:23:11;;;;;;;13.50;10.30;;;14.00;99.90;;;;;;5068021;28;20041;-84
2023/08/06 05:25:37;;;;;;;17.00;12.30;;;14.00;99.90;;;;;;5059542;28;20094;-84
2023/08/06 05:28:03;;;;;;;14.70;11.38;;;14.00;99.90;;;;;;5066596;28;20113;-84
2023/08/06 05:30:29;;;;;;;14.35;11.40;;;14.10;99.90;;;;;;5068177;28;20285;-84
2023/08/06 05:32:55;;;;;;;14.75;11.52;;;14.20;99.90;;;;;;5066585;28;20132;-84
2023/08/06 05:35:21;;;;;;;13.45;9.93;;;14.20;99.90;;;;;;5063108;28;20080;-84
2023/08/06 05:37:47;;;;;;;14.00;10.80;;;14.20;99.90;;;;;;5050169;28;20093;-84
2023/08/06 05:40:14;;;;;;;15.48;10.68;;;14.30;99.90;;;;;;5085714;28;20055;-84
2023/08/06 05:42:40;;;;;;;17.10;10.93;;;14.40;99.90;;;;;;5058310;28;20044;-84
2023/08/06 05:45:06;;;;;;;18.70;11.43;;;14.60;99.90;;;;;;5072753;28;20127;-85
2023/08/06 05:47:32;;;;;;;17.75;10.55;;;14.80;99.90;;;;;;5044164;28;20044;-84
2023/08/06 05:49:58;;;;;;;13.05;9.93;;;14.90;99.90;;;;;;5049047;28;20109;-84
2023/08/06 05:52:23;;;;;;;15.55;9.27;;;15.00;99.90;;;;;;5059585;28;20048;-85
2023/08/06 05:54:49;;;;;;;13.18;8.88;;;15.20;99.90;;;;;;5067645;28;20131;-85
2023/08/06 05:57:15;;;;;;;11.50;8.63;;;15.20;99.90;;;;;;5041485;28;20040;-85
2023/08/06 05:59:42;;;;;;;9.30;8.13;;;15.30;99.90;;;;;;5083942;28;20056;-85
2023/08/06 06:02:08;;;;;;;11.23;8.32;;;15.30;99.90;;;;;;5048645;28;20048;-85
2023/08/06 06:04:33;;;;;;;16.02;7.88;;;15.30;99.90;;;;;;5067942;28;20040;-85
2023/08/06 06:06:59;;;;;;;9.07;7.70;;;15.40;99.90;;;;;;5050199;28;20050;-84
2023/08/06 06:09:25;;;;;;;12.13;7.85;;;15.40;99.90;;;;;;5067789;28;20052;-85
2023/08/06 06:11:51;;;;;;;9.70;7.22;;;15.40;99.90;;;;;;5052810;28;20477;-90
2023/08/06 06:14:18;;;;;;;9.70;7.25;;;15.50;99.90;;;;;;5036474;28;20492;-88
2023/08/06 06:16:44;;;;;;;7.70;6.90;;;15.50;99.90;;;;;;5073415;28;20062;-92
2023/08/06 06:19:09;;;;;;;11.73;7.18;;;15.60;99.90;;;;;;5069814;28;20519;-92
2023/08/06 06:21:35;;;;;;;9.65;6.30;;;15.60;99.90;;;;;;5078578;28;20051;-91
2023/08/06 06:24:01;;;;;;;11.13;6.45;;;15.60;99.90;;;;;;5049947;28;20109;-92
2023/08/06 06:26:26;;;;;;;10.75;6.75;;;15.70;99.90;;;;;;5065074;28;20049;-93
2023/08/06 06:28:52;;;;;;;9.35;6.53;;;15.70;99.90;;;;;;5067117;28;20091;-92
2023/08/06 06:31:18;;;;;;;7.88;6.57;;;15.80;99.90;;;;;;5066275;28;20032;-93
2023/08/06 06:33:43;;;;;;;8.48;6.50;;;15.90;99.90;;;;;;5065927;28;20076;-93
2023/08/06 06:36:09;;;;;;;8.52;6.18;;;15.90;99.90;;;;;;5050211;28;20492;-94
2023/08/06 06:38:35;;;;;;;9.63;7.05;;;15.90;99.90;;;;;;5050701;28;20049;-93
2023/08/06 06:41:03;;;;;;;11.20;6.70;;;16.00;99.90;;;;;;5052162;28;20143;-95
2023/08/06 06:43:29;;;;;;;13.65;6.80;;;16.10;99.90;;;;;;5067264;28;20101;-92
2023/08/06 06:45:59;;;;;;;7.88;5.85;;;16.10;99.90;;;;;;5055855;28;20044;-92
2023/08/06 06:48:29;;;;;;;9.38;5.63;;;16.20;99.90;;;;;;5070042;28;20049;-93
2023/08/06 06:50:55;;;;;;;8.60;6.60;;;16.30;99.90;;;;;;5050997;28;20512;-92
2023/08/06 06:53:26;;;;;;;9.15;6.72;;;16.30;99.90;;;;;;5065450;28;20125;-91
2023/08/06 06:55:55;;;;;;;9.35;5.88;;;16.40;99.90;;;;;;5059978;28;20511;-93
2023/08/06 06:58:21;;;;;;;8.90;5.68;;;16.40;99.90;;;;;;5052303;28;20037;-92
2023/08/06 07:00:48;;;;;;;7.97;5.72;;;16.50;99.90;;;;;;5039611;28;20074;-92
2023/08/06 07:03:17;;;;;;;8.80;5.75;;;16.60;99.90;;;;;;5045002;28;20179;-92
2023/08/06 07:05:44;;;;;;;6.72;5.32;;;16.70;99.90;;;;;;5042055;28;20052;-93
2023/08/06 07:08:10;;;;;;;10.13;5.90;;;16.90;99.90;;;;;;5064339;28;20052;-94
2023/08/06 07:10:35;;;;;;;8.02;5.22;;;16.90;99.90;;;;;;5051474;28;20053;-95
2023/08/06 07:13:01;;;;;;;8.50;5.63;;;17.00;99.90;;;;;;5067795;28;20036;-94
2023/08/06 07:15:27;;;;;;;8.25;5.47;;;17.10;99.90;;;;;;5069358;28;20040;-94
2023/08/06 07:17:53;;;;;;;7.15;4.90;;;17.20;99.90;;;;;;5050408;28;20040;-95
2023/08/06 07:20:18;;;;;;;7.07;4.85;;;17.20;99.90;;;;;;5051060;28;20484;-94
2023/08/06 07:22:45;;;;;;;7.20;4.65;;;17.30;99.90;;;;;;5067837;28;20040;-94
2023/08/06 07:25:10;;;;;;;9.13;4.97;;;17.30;99.90;;;;;;5068354;28;20036;-93
2023/08/06 07:27:36;;;;;;;7.22;4.85;;;17.30;99.90;;;;;;5039417;28;20048;-92
2023/08/06 07:30:03;;;;;;;6.68;4.53;;;17.40;99.90;;;;;;5051027;28;20578;-93
2023/08/06 07:32:28;;;;;;;6.53;4.70;;;17.50;99.90;;;;;;5047689;28;20052;-91
2023/08/06 07:34:59;;;;;;;6.40;4.38;;;17.50;99.90;;;;;;5047131;28;20044;-93
2023/08/06 07:37:25;;;;;;;8.75;4.43;;;17.60;99.90;;;;;;5058831;28;20123;-94
2023/08/06 07:39:51;;;;;;;5.78;4.10;;;17.60;99.90;;;;;;5069840;28;20044;-94
2023/08/06 07:42:20;;;;;;;8.30;4.13;;;17.70;99.90;;;;;;5069398;28;20066;-93
2023/08/06 07:44:56;;;;;;;6.13;4.75;;;17.80;99.90;;;;;;5086433;28;20510;-94
2023/08/06 07:47:22;;;;;;;7.30;4.85;;;17.90;99.90;;;;;;5070002;28;20086;-94
2023/08/06 07:49:48;;;;;;;8.05;5.28;;;17.90;99.90;;;;;;5060063;28;20097;-93
2023/08/06 07:52:14;;;;;;;8.38;5.13;;;17.90;99.90;;;;;;5076145;28;20036;-94
2023/08/06 07:54:40;;;;;;;8.55;4.60;;;17.80;99.90;;;;;;5056736;28;20135;-95
2023/08/06 07:57:06;;;;;;;5.97;4.22;;;17.80;99.90;;;;;;5058322;28;20051;-96
2023/08/06 07:59:32;;;;;;;6.00;4.20;;;17.80;99.90;;;;;;5063178;28;20048;-95
2023/08/06 08:01:58;;;;;;;10.05;4.68;;;17.80;99.90;;;;;;5076738;28;20046;-96
2023/08/06 08:04:24;;;;;;;8.27;4.50;;;17.80;99.90;;;;;;5057979;28;20056;-96
2023/08/06 08:06:50;;;;;;;9.98;5.38;;;17.90;99.90;;;;;;5051416;28;20087;-95
2023/08/06 08:09:16;;;;;;;10.38;5.05;;;18.00;99.90;;;;;;5051303;28;20499;-95
2023/08/06 08:11:42;;;;;;;13.98;10.55;;;18.10;99.90;;;;;;5051112;28;20048;-96
2023/08/06 08:14:08;;;;;;;11.00;6.25;;;18.20;99.90;;;;;;5069961;28;20155;-96
2023/08/06 08:16:34;;;;;;;8.07;4.63;;;18.30;99.90;;;;;;5051559;28;20476;-95
2023/08/06 08:18:59;;;;;;;6.65;4.13;;;18.40;99.90;;;;;;5051967;28;20488;-95
2023/08/06 08:21:25;;;;;;;6.82;4.25;;;18.50;99.90;;;;;;5054017;28;20049;-95
2023/08/06 08:23:51;;;;;;;6.43;3.70;;;18.70;99.90;;;;;;5063138;28;20051;-95
2023/08/06 08:26:17;;;;;;;12.02;3.47;;;18.80;99.90;;;;;;5070600;28;20044;-96
2023/08/06 08:28:43;;;;;;;6.40;4.40;;;18.90;99.90;;;;;;5065579;28;20040;-96
2023/08/06 08:31:09;;;;;;;6.03;3.97;;;19.00;99.90;;;;;;5070577;28;20136;-95
2023/08/06 08:33:35;;;;;;;10.60;4.00;;;19.10;99.90;;;;;;5057717;28;20048;-96
2023/08/06 08:36:01;;;;;;;10.63;4.03;;;19.20;99.90;;;;;;5056997;28;20037;-96
2023/08/06 08:38:27;;;;;;;6.07;3.42;;;19.30;99.90;;;;;;5072464;28;20071;-96
2023/08/06 08:40:54;;;;;;;5.70;3.38;;;19.40;99.90;;;;;;5057400;28;20055;-96
2023/08/06 08:43:22;;;;;;;7.13;4.10;;;19.50;99.90;;;;;;5085607;28;20048;-93
2023/08/06 08:45:51;;;;;;;7.05;3.47;;;19.50;99.90;;;;;;5060755;28;20044;-94
2023/08/06 08:48:19;;;;;;;5.25;3.28;;;19.50;99.90;;;;;;5073523;28;20101;-94
2023/08/06 08:50:46;;;;;;;4.97;3.10;;;19.60;99.90;;;;;;5056122;28;20043;-93
2023/08/06 08:53:14;;;;;;;8.27;3.10;;;19.70;99.90;;;;;;5054022;28;20046;-94
2023/08/06 08:55:40;;;;;;;5.30;3.17;;;19.80;99.90;;;;;;5070715;28;20048;-94
2023/08/06 08:58:06;;;;;;;10.10;6.38;;;19.80;99.90;;;;;;5054687;28;20044;-93
2023/08/06 09:00:33;;;;;;;5.55;2.97;;;19.80;99.90;;;;;;5069988;28;20045;-94
2023/08/06 09:03:00;;;;;;;13.90;9.18;;;19.90;99.90;;;;;;5083444;28;20282;-94
2023/08/06 09:05:30;;;;;;;11.10;6.07;;;20.10;99.90;;;;;;5070614;28;20083;-96
2023/08/06 09:08:03;;;;;;;8.10;2.72;;;20.20;99.90;;;;;;5054543;28;20102;-92
2023/08/06 09:10:29;;;;;;;10.52;4.95;;;20.30;99.90;;;;;;5081944;28;20492;-95
2023/08/06 09:12:56;;;;;;;6.53;3.08;;;20.30;99.90;;;;;;5059568;28;20043;-96
2023/08/06 09:15:26;;;;;;;8.95;4.57;;;20.20;99.90;;;;;;5067377;28;20533;-95
2023/08/06 09:17:53;;;;;;;3.35;2.05;;;20.30;99.90;;;;;;5079030;28;20040;-96
2023/08/06 09:20:19;;;;;;;4.32;2.03;;;20.30;99.90;;;;;;5052982;28;20443;-91
2023/08/06 09:22:47;;;;;;;4.60;2.03;;;20.40;99.90;;;;;;5063586;28;20047;-91
2023/08/06 09:25:23;;;;;;;19.67;9.73;;;20.40;99.90;;;;;;5052786;28;20441;-90
2023/08/06 09:27:50;;;;;;;4.13;2.10;;;20.40;99.90;;;;;;5064795;28;20101;-90
2023/08/06 09:30:30;;;;;;;3.42;1.30;;;20.50;99.90;;;;;;5059167;28;20044;-90
2023/08/06 09:32:57;;;;;;;2.70;1.35;;;20.60;99.90;;;;;;5056232;28;20044;-91
2023/08/06 09:35:22;;;;;;;6.72;1.50;;;20.50;99.90;;;;;;5069841;28;20098;-95
2023/08/06 09:37:48;;;;;;;5.10;1.40;;;20.50;99.90;;;;;;5061554;28;20036;-94
2023/08/06 09:40:30;;;;;;;3.88;1.70;;;20.60;99.90;;;;;;5069202;28;20058;-95
2023/08/06 09:42:57;;;;;;;5.55;1.88;;;20.60;99.90;;;;;;5070537;28;20051;-95
2023/08/06 09:45:27;;;;;;;6.03;1.33;;;20.70;99.90;;;;;;5081610;28;20055;-85
2023/08/06 09:47:57;;;;;;;7.35;1.50;;;20.70;99.90;;;;;;5049447;28;20045;-85
2023/08/06 09:50:26;;;;;;;7.60;2.63;;;20.70;99.90;;;;;;5049920;28;20037;-85
2023/08/06 09:52:52;;;;;;;5.43;2.05;;;20.90;99.90;;;;;;5066726;28;20032;-85
2023/08/06 09:55:18;;;;;;;6.07;1.73;;;20.90;99.90;;;;;;5049272;28;20044;-85
2023/08/06 09:57:45;;;;;;;4.85;1.67;;;20.90;99.90;;;;;;5049726;28;20033;-85
2023/08/06 10:00:11;;;;;;;4.00;1.50;;;21.00;99.90;;;;;;5067527;28;20117;-86
2023/08/06 10:02:41;;;;;;;3.80;1.40;;;21.00;99.90;;;;;;5084523;28;20033;-85
2023/08/06 10:05:08;;;;;;;2.63;1.20;;;21.10;99.90;;;;;;5072439;28;20051;-85
2023/08/06 10:07:34;;;;;;;3.90;1.40;;;21.10;99.90;;;;;;5065869;28;20512;-84
2023/08/06 10:10:01;;;;;;;8.13;1.50;;;21.20;99.90;;;;;;5062053;28;20042;-84
2023/08/06 10:12:30;;;;;;;3.53;1.30;;;21.30;99.90;;;;;;5082681;28;20048;-83
2023/08/06 10:14:59;;;;;;;3.47;1.52;;;21.50;99.90;;;;;;5063039;28;20150;-84
2023/08/06 10:17:26;;;;;;;2.22;1.20;;;21.70;99.90;;;;;;5084381;28;20051;-85
2023/08/06 10:19:55;;;;;;;2.38;1.20;;;21.80;99.90;;;;;;5046824;28;20032;-84
2023/08/06 10:22:21;;;;;;;1.50;0.93;;;21.70;99.90;;;;;;5081794;28;20105;-85
2023/08/06 10:25:05;;;;;;;2.30;0.90;;;21.70;99.90;;;;;;5048263;28;20044;-84
2023/08/06 10:27:35;;;;;;;3.15;1.10;;;21.70;99.90;;;;;;5046730;28;20049;-86
2023/08/06 10:30:44;;;;;;;5.15;1.10;;;21.80;99.90;;;;;;5064271;28;20483;-86
2023/08/06 10:33:10;;;;;;;3.88;1.42;;;21.70;99.90;;;;;;4969202;28;20034;-94
2023/08/06 10:35:39;;;;;;;2.40;1.20;;;21.80;99.90;;;;;;4979641;28;20405;-95
2023/08/06 10:38:05;;;;;;;4.95;1.42;;;21.80;99.90;;;;;;5033350;28;20226;-95
2023/08/06 10:40:32;;;;;;;3.60;1.25;;;21.60;99.90;;;;;;5067996;28;20377;-88
2023/08/06 10:43:00;;;;;;;3.28;1.38;;;21.80;99.90;;;;;;5080514;28;20142;-91
2023/08/06 10:45:28;;;;;;;2.50;0.98;;;21.90;99.90;;;;;;5054596;28;20051;-91
2023/08/06 10:47:58;;;;;;;2.53;1.10;;;22.00;99.90;;;;;;5073771;28;20087;-88
2023/08/06 10:50:24;;;;;;;2.80;0.98;;;22.20;99.90;;;;;;5062163;28;20052;-88
2023/08/06 10:52:51;;;;;;;2.58;0.95;;;22.20;99.90;;;;;;5079045;28;20559;-93
2023/08/06 10:55:27;;;;;;;6.20;1.10;;;22.10;99.90;;;;;;5082293;28;20048;-96
2023/08/06 10:57:54;;;;;;;2.60;1.13;;;22.00;99.90;;;;;;5075335;28;20440;-95
2023/08/06 11:00:22;;;;;;;2.63;1.23;;;22.00;99.90;;;;;;5036243;28;20575;-94
2023/08/06 11:02:49;;;;;;;5.85;1.35;;;22.10;99.90;;;;;;5081369;28;20105;-96
2023/08/06 11:05:15;;;;;;;2.58;1.15;;;22.10;99.90;;;;;;5072271;28;20044;-92
2023/08/06 11:07:41;;;;;;;3.72;1.98;;;22.00;99.90;;;;;;5051705;28;20037;-95
2023/08/06 11:10:08;;;;;;;7.70;1.45;;;22.00;99.90;;;;;;5071618;28;20051;-93
2023/08/06 11:12:34;;;;;;;2.17;1.15;;;21.90;99.90;;;;;;5053458;28;20051;-95
2023/08/06 11:15:01;;;;;;;6.45;1.17;;;21.80;99.90;;;;;;5045526;28;20040;-95
2023/08/06 11:17:28;;;;;;;2.15;1.10;;;21.80;99.90;;;;;;5070691;28;20831;-94
2023/08/06 11:19:54;;;;;;;2.38;1.00;;;21.80;99.90;;;;;;5079926;28;20088;-93
2023/08/06 11:22:23;;;;;;;2.50;1.20;;;21.80;99.90;;;;;;5057862;28;20555;-88
2023/08/06 11:24:49;;;;;;;4.30;1.20;;;21.70;99.90;;;;;;5051767;28;20044;-92
2023/08/06 11:27:16;;;;;;;2.60;1.10;;;21.60;99.90;;;;;;5052563;28;20067;-92
2023/08/06 11:29:43;;;;;;;3.63;1.20;;;21.60;99.90;;;;;;5068600;28;20051;-91
2023/08/06 11:32:10;;;;;;;2.10;1.00;;;21.60;99.90;;;;;;5049566;28;20044;-94
2023/08/06 11:34:36;;;;;;;3.05;1.00;;;21.50;99.90;;;;;;5063199;28;20537;-95
2023/08/06 11:37:06;;;;;;;2.78;1.40;;;21.40;99.90;;;;;;5053021;28;20552;-92
2023/08/06 11:39:36;;;;;;;3.22;1.20;;;21.50;99.90;;;;;;5055395;28;20035;-96
2023/08/06 11:42:06;;;;;;;3.63;1.20;;;21.40;99.90;;;;;;5070277;28;20040;-90
2023/08/06 11:44:34;;;;;;;3.78;1.25;;;21.40;99.90;;;;;;5059249;28;20041;-94
2023/08/06 11:47:02;;;;;;;4.53;1.23;;;21.60;99.90;;;;;;5054456;28;20047;-95
2023/08/06 11:49:45;;;;;;;2.17;1.20;;;21.80;99.90;;;;;;5050196;28;20049;-95
2023/08/06 11:52:19;;;;;;;6.05;1.30;;;21.80;99.90;;;;;;5041276;28;20399;-94
2023/08/06 11:54:47;;;;;;;3.80;1.33;;;21.70;99.90;;;;;;5070163;28;20157;-96
2023/08/06 11:57:13;;;;;;;3.85;1.33;;;21.60;99.90;;;;;;5053564;28;20094;-95
2023/08/06 11:59:39;;;;;;;2.42;1.10;;;21.50;99.90;;;;;;5052235;28;20660;-93
2023/08/06 12:02:10;;;;;;;2.90;1.30;;;21.50;99.90;;;;;;5079405;28;20079;-94
2023/08/06 12:05:05;;;;;;;2.63;1.08;;;21.50;99.90;;;;;;5081015;28;20080;-95
2023/08/06 12:07:32;;;;;;;5.55;1.25;;;21.60;99.90;;;;;;5058876;28;20079;-95
2023/08/06 12:09:58;;;;;;;2.20;1.27;;;21.60;99.90;;;;;;5075454;28;20086;-94
2023/08/06 12:12:27;;;;;;;2.63;1.05;;;21.60;99.90;;;;;;5078080;28;20072;-96
2023/08/06 12:14:54;;;;;;;7.75;1.63;;;21.70;99.90;;;;;;5085079;28;20074;-93
2023/08/06 12:17:19;;;;;;;3.35;1.35;;;21.60;99.90;;;;;;5066215;28;20043;-91
2023/08/06 12:19:47;;;;;;;5.20;1.40;;;21.60;99.90;;;;;;5085441;28;20040;-90
2023/08/06 12:22:13;;;;;;;2.42;1.00;;;21.50;99.90;;;;;;5053579;28;20502;-88
2023/08/06 12:24:48;;;;;;;3.35;1.27;;;21.60;99.90;;;;;;5056560;28;20090;-89
2023/08/06 12:27:17;;;;;;;3.17;1.00;;;21.70;99.90;;;;;;5067569;28;20040;-89
2023/08/06 12:29:52;;;;;;;3.63;1.20;;;21.80;99.90;;;;;;5071735;28;20095;-96
2023/08/06 12:32:19;;;;;;;4.03;1.05;;;21.90;99.90;;;;;;5053652;28;20045;-91
2023/08/06 12:34:44;;;;;;;3.50;1.17;;;22.00;99.90;;;;;;5064934;28;20052;-93
2023/08/06 12:37:10;;;;;;;4.75;1.30;;;21.80;99.90;;;;;;5060382;28;20055;-95
2023/08/06 12:39:37;;;;;;;5.55;1.30;;;21.60;99.90;;;;;;5081521;28;20067;-95